createdAt,value
2022-10-01T00:01:15.947Z,12.96
2022-10-01T00:03:43.398Z,12.94
2022-10-01T00:06:13.004Z,12.94
2022-10-01T00:08:41.222Z,12.94
2022-10-01T00:11:13.546Z,12.94
2022-10-01T00:13:43.048Z,12.94
2022-10-01T00:16:13.302Z,12.94
2022-10-01T00:18:41.895Z,12.94
2022-10-01T00:21:12.810Z,12.94
2022-10-01T00:23:39.610Z,12.94
2022-10-01T00:26:13.749Z,12.93
2022-10-01T00:28:41.838Z,12.94
2022-10-01T00:31:09.511Z,12.93
2022-10-01T00:33:37.083Z,12.93
2022-10-01T00:36:05.469Z,12.92
2022-10-01T00:38:32.704Z,12.92
2022-10-01T00:40:59.815Z,12.92
2022-10-01T00:43:29.382Z,12.93
2022-10-01T00:46:00.010Z,12.94
2022-10-01T00:48:28.391Z,12.94
2022-10-01T00:50:55.115Z,12.95
2022-10-01T00:53:22.316Z,12.95
2022-10-01T00:55:55.382Z,12.95
2022-10-01T00:58:23.147Z,12.96
2022-10-01T01:00:50.948Z,12.98
2022-10-01T01:03:17.938Z,12.98
2022-10-01T01:05:51.817Z,12.99
2022-10-01T01:08:20.826Z,13.00
2022-10-01T01:10:51.451Z,13.01
2022-10-01T01:13:29.689Z,13.01
2022-10-01T01:16:11.583Z,13.03
2022-10-01T01:18:41.496Z,13.04
2022-10-01T01:21:17.124Z,13.04
2022-10-01T01:24:01.742Z,13.06
2022-10-01T01:26:42.317Z,13.05
2022-10-01T01:29:29.283Z,13.08
2022-10-01T01:31:58.647Z,13.09
2022-10-01T01:34:28.907Z,13.09
2022-10-01T01:37:11.936Z,13.10
2022-10-01T01:39:42.004Z,13.11
2022-10-01T01:42:16.265Z,13.13
2022-10-01T01:44:44.831Z,13.15
2022-10-01T01:47:12.935Z,13.14
2022-10-01T01:49:39.992Z,13.16
2022-10-01T01:52:13.425Z,13.17
2022-10-01T01:54:40.707Z,13.19
2022-10-01T01:57:08.802Z,13.20
2022-10-01T01:59:36.085Z,13.22
2022-10-01T02:02:04.276Z,13.24
2022-10-01T02:04:44.079Z,13.25
2022-10-01T02:07:32.260Z,13.28
2022-10-01T02:10:17.807Z,13.31
2022-10-01T02:12:44.510Z,13.30
2022-10-01T02:15:20.459Z,13.29
2022-10-01T02:17:56.026Z,13.32
2022-10-01T02:20:30.346Z,13.32
2022-10-01T02:23:03.720Z,13.34
2022-10-01T02:25:34.745Z,13.35
2022-10-01T02:28:06.679Z,13.37
2022-10-01T02:30:35.724Z,13.39
2022-10-01T02:33:03.640Z,13.41
2022-10-01T02:35:32.287Z,13.42
2022-10-01T02:38:00.638Z,13.44
2022-10-01T02:40:28.748Z,13.47
2022-10-01T02:42:57.943Z,13.48
2022-10-01T02:45:26.053Z,13.49
2022-10-01T02:48:00.047Z,13.49
2022-10-01T02:50:30.787Z,13.50
2022-10-01T02:53:06.405Z,13.51
2022-10-01T02:55:36.638Z,13.52
2022-10-01T02:58:03.721Z,13.53
2022-10-01T03:00:30.622Z,13.54
2022-10-01T03:02:57.399Z,13.55
2022-10-01T03:05:24.363Z,13.56
2022-10-01T03:07:59.367Z,13.58
2022-10-01T03:10:28.679Z,13.60
2022-10-01T03:12:55.771Z,13.61
2022-10-01T03:15:22.555Z,13.64
2022-10-01T03:17:53.063Z,13.65
2022-10-01T03:20:20.220Z,13.68
2022-10-01T03:22:47.277Z,13.68
2022-10-01T03:25:15.206Z,13.69
2022-10-01T03:27:42.330Z,13.68
2022-10-01T03:30:10.100Z,13.70
2022-10-01T03:32:36.817Z,13.73
2022-10-01T03:35:03.836Z,13.74
2022-10-01T03:37:30.516Z,13.75
2022-10-01T03:39:57.287Z,13.77
2022-10-01T03:42:23.899Z,13.78
2022-10-01T03:44:50.615Z,13.79
2022-10-01T03:47:17.283Z,13.81
2022-10-01T03:49:43.939Z,13.81
2022-10-01T03:52:10.588Z,13.82
2022-10-01T03:54:37.938Z,13.83
2022-10-01T03:57:04.579Z,13.84
2022-10-01T03:59:31.315Z,13.86
2022-10-01T04:01:58.087Z,13.87
2022-10-01T04:04:24.959Z,13.89
2022-10-01T04:06:51.977Z,13.88
2022-10-01T04:09:18.715Z,13.86
2022-10-01T04:11:45.356Z,13.85
2022-10-01T04:14:12.069Z,13.87
2022-10-01T04:16:38.823Z,13.88
2022-10-01T04:19:05.580Z,13.88
2022-10-01T04:21:32.653Z,13.89
2022-10-01T04:24:00.121Z,13.91
2022-10-01T04:26:27.073Z,13.91
2022-10-01T04:28:53.736Z,13.92
2022-10-01T04:31:26.536Z,13.93
2022-10-01T04:33:54.652Z,13.92
2022-10-01T04:36:22.209Z,13.92
2022-10-01T04:38:51.544Z,13.93
2022-10-01T04:41:18.296Z,13.94
2022-10-01T04:43:45.070Z,13.96
2022-10-01T04:46:11.800Z,13.96
2022-10-01T04:48:38.495Z,13.97
2022-10-01T04:51:05.210Z,13.96
2022-10-01T04:53:32.362Z,13.96
2022-10-01T04:55:59.020Z,13.97
2022-10-01T04:58:26.944Z,13.98
2022-10-01T05:00:54.920Z,13.96
2022-10-01T05:03:24.115Z,13.98
2022-10-01T05:05:50.760Z,13.98
2022-10-01T05:08:17.468Z,14.00
2022-10-01T05:10:44.338Z,14.00
2022-10-01T05:13:11.149Z,14.00
2022-10-01T05:15:37.828Z,13.98
2022-10-01T05:18:04.611Z,13.98
2022-10-01T05:20:31.508Z,13.98
2022-10-01T05:22:58.351Z,13.95
2022-10-01T05:25:25.053Z,13.96
2022-10-01T05:27:51.867Z,13.97
2022-10-01T05:30:24.053Z,14.00
2022-10-01T05:32:58.543Z,14.00
2022-10-01T05:35:25.402Z,14.00
2022-10-01T05:37:56.903Z,13.98
2022-10-01T05:40:28.529Z,14.00
2022-10-01T05:42:56.805Z,14.02
2022-10-01T05:45:23.813Z,14.03
2022-10-01T05:48:01.985Z,14.02
2022-10-01T05:50:31.515Z,14.04
2022-10-01T05:52:59.346Z,14.05
2022-10-01T05:55:26.501Z,14.05
2022-10-01T05:58:05.004Z,14.03
2022-10-01T06:00:32.455Z,13.83
2022-10-01T06:03:00.726Z,13.57
2022-10-01T06:05:28.708Z,13.24
2022-10-01T06:07:55.636Z,13.05
2022-10-01T06:10:23.309Z,12.94
2022-10-01T06:12:50.480Z,12.74
2022-10-01T06:15:18.086Z,12.73
2022-10-01T06:17:45.399Z,12.67
2022-10-01T06:20:17.499Z,12.70
2022-10-01T06:22:44.943Z,12.76
2022-10-01T06:25:15.066Z,12.78
2022-10-01T06:27:42.350Z,12.70
2022-10-01T06:30:09.630Z,12.63
2022-10-01T06:32:36.812Z,12.57
2022-10-01T06:35:04.363Z,12.52
2022-10-01T06:37:31.127Z,12.52
2022-10-01T06:39:57.770Z,12.57
2022-10-01T06:42:24.651Z,12.55
2022-10-01T06:44:51.795Z,12.57
2022-10-01T06:47:21.101Z,12.61
2022-10-01T06:49:47.973Z,12.59
2022-10-01T06:52:33.806Z,12.64
2022-10-01T06:55:01.545Z,12.67
2022-10-01T06:57:29.032Z,12.73
2022-10-01T06:59:55.907Z,12.80
2022-10-01T07:02:30.257Z,12.81
2022-10-01T07:05:00.056Z,12.78
2022-10-01T07:07:35.367Z,12.72
2022-10-01T07:10:04.337Z,12.72
2022-10-01T07:12:31.123Z,12.69
2022-10-01T07:14:57.926Z,12.70
2022-10-01T07:17:24.860Z,12.75
2022-10-01T07:19:51.645Z,12.78
2022-10-01T07:22:19.527Z,12.77
2022-10-01T07:24:46.856Z,12.78
2022-10-01T07:27:14.718Z,12.85
2022-10-01T07:29:41.969Z,12.83
2022-10-01T07:32:10.482Z,12.88
2022-10-01T07:34:40.261Z,12.82
2022-10-01T07:37:08.410Z,12.82
2022-10-01T07:39:36.320Z,12.87
2022-10-01T07:42:03.462Z,12.89
2022-10-01T07:44:30.191Z,12.88
2022-10-01T07:46:57.108Z,12.85
2022-10-01T07:49:27.140Z,12.91
2022-10-01T07:51:54.606Z,12.98
2022-10-01T07:54:22.287Z,13.02
2022-10-01T07:56:52.086Z,13.00
2022-10-01T07:59:25.120Z,13.03
2022-10-01T08:01:51.997Z,12.99
2022-10-01T08:04:38.358Z,13.04
2022-10-01T08:07:06.078Z,13.10
2022-10-01T08:09:32.924Z,13.08
2022-10-01T08:12:00.003Z,13.05
2022-10-01T08:14:28.686Z,13.06
2022-10-01T08:16:56.279Z,12.99
2022-10-01T08:19:22.998Z,12.95
2022-10-01T08:21:49.736Z,12.96
2022-10-01T08:24:16.796Z,12.95
2022-10-01T08:26:44.125Z,13.02
2022-10-01T08:29:16.246Z,13.06
2022-10-01T08:31:43.856Z,13.15
2022-10-01T08:34:10.676Z,13.17
2022-10-01T08:36:37.838Z,13.22
2022-10-01T08:39:04.632Z,13.21
2022-10-01T08:42:03.445Z,13.19
2022-10-01T08:44:42.554Z,13.23
2022-10-01T08:47:35.094Z,13.16
2022-10-01T08:50:43.273Z,13.14
2022-10-01T08:53:17.421Z,13.16
2022-10-01T08:55:44.401Z,13.25
2022-10-01T08:58:18.510Z,13.29
2022-10-01T09:00:46.839Z,13.28
2022-10-01T09:03:15.016Z,13.25
2022-10-01T09:05:44.237Z,13.23
2022-10-01T09:08:45.771Z,13.22
2022-10-01T09:11:12.478Z,13.17
2022-10-01T09:13:51.696Z,13.22
2022-10-01T09:16:44.744Z,13.34
2022-10-01T09:19:14.519Z,13.45
2022-10-01T09:22:07.240Z,13.49
2022-10-01T09:24:46.971Z,13.52
2022-10-01T09:27:16.402Z,13.59
2022-10-01T09:29:49.149Z,13.59
2022-10-01T09:32:20.506Z,13.59
2022-10-01T09:34:47.482Z,13.69
2022-10-01T09:37:28.780Z,13.78
2022-10-01T09:40:32.846Z,13.73
2022-10-01T09:43:00.791Z,13.70
2022-10-01T09:45:28.277Z,13.68
2022-10-01T09:48:03.231Z,13.79
2022-10-01T09:50:36.573Z,13.84
2022-10-01T09:53:03.743Z,13.91
2022-10-01T09:55:39.728Z,13.94
2022-10-01T09:58:18.132Z,13.99
2022-10-01T10:00:45.560Z,14.06
2022-10-01T10:03:23.384Z,14.21
2022-10-01T10:05:50.857Z,14.42
2022-10-01T10:08:31.127Z,14.46
2022-10-01T10:11:03.539Z,14.40
2022-10-01T10:13:35.404Z,14.30
2022-10-01T10:16:16.040Z,14.26
2022-10-01T10:18:42.694Z,14.29
2022-10-01T10:21:16.240Z,14.31
2022-10-01T10:23:54.313Z,14.40
2022-10-01T10:26:26.036Z,14.44
2022-10-01T10:28:58.706Z,14.56
2022-10-01T10:31:30.466Z,14.54
2022-10-01T10:34:05.087Z,14.53
2022-10-01T10:36:34.904Z,14.70
2022-10-01T10:39:04.416Z,14.82
2022-10-01T10:41:31.376Z,14.85
2022-10-01T10:44:01.436Z,15.03
2022-10-01T10:46:36.895Z,15.20
2022-10-01T10:49:18.488Z,15.31
2022-10-01T10:51:56.290Z,15.35
2022-10-01T10:54:28.096Z,15.33
2022-10-01T10:57:03.456Z,15.19
2022-10-01T10:59:32.665Z,15.08
2022-10-01T11:02:01.499Z,15.03
2022-10-01T11:04:42.202Z,15.02
2022-10-01T11:07:09.410Z,15.06
2022-10-01T11:10:02.568Z,14.96
2022-10-01T11:13:00.071Z,14.76
2022-10-01T11:15:45.473Z,14.89
2022-10-01T11:18:20.780Z,14.95
2022-10-01T11:21:00.845Z,15.07
2022-10-01T11:23:37.688Z,15.22
2022-10-01T11:26:31.017Z,15.26
2022-10-01T11:29:08.860Z,15.26
2022-10-01T11:31:47.589Z,15.41
2022-10-01T11:34:32.839Z,15.50
2022-10-01T11:37:02.561Z,15.50
2022-10-01T11:39:30.217Z,15.26
2022-10-01T11:42:01.935Z,15.13
2022-10-01T11:44:36.586Z,15.25
2022-10-01T11:47:30.927Z,15.38
2022-10-01T11:50:03.492Z,15.49
2022-10-01T11:52:47.949Z,15.58
2022-10-01T11:55:53.971Z,15.59
2022-10-01T11:58:52.477Z,15.74
2022-10-01T12:01:38.071Z,15.89
2022-10-01T12:04:37.929Z,15.97
2022-10-01T12:07:08.112Z,15.93
2022-10-01T12:09:55.576Z,15.68
2022-10-01T12:12:36.400Z,15.54
2022-10-01T12:15:06.826Z,15.52
2022-10-01T12:17:37.384Z,15.59
2022-10-01T12:20:06.196Z,15.59
2022-10-01T12:22:34.835Z,15.62
2022-10-01T12:25:02.539Z,15.75
2022-10-01T12:27:38.150Z,15.79
2022-10-01T12:30:16.248Z,15.74
2022-10-01T12:33:01.028Z,15.58
2022-10-01T12:35:38.948Z,15.65
2022-10-01T12:38:18.851Z,15.69
2022-10-01T12:40:54.518Z,15.62
2022-10-01T12:43:47.378Z,15.63
2022-10-01T12:46:16.927Z,15.66
2022-10-01T12:48:59.648Z,15.71
2022-10-01T12:51:42.211Z,15.78
2022-10-01T12:54:37.586Z,15.80
2022-10-01T12:57:07.930Z,15.76
2022-10-01T12:59:59.247Z,15.70
2022-10-01T13:02:33.221Z,15.66
2022-10-01T13:05:22.179Z,15.70
2022-10-01T13:08:03.442Z,15.60
2022-10-01T13:10:39.369Z,15.48
2022-10-01T13:13:17.076Z,15.57
2022-10-01T13:15:49.648Z,15.56
2022-10-01T13:18:26.513Z,15.58
2022-10-01T13:21:16.574Z,15.77
2022-10-01T13:23:54.320Z,15.94
2022-10-01T13:26:37.139Z,15.99
2022-10-01T13:29:12.238Z,15.93
2022-10-01T13:31:59.915Z,15.87
2022-10-01T13:34:43.379Z,15.97
2022-10-01T13:37:19.078Z,16.07
2022-10-01T13:39:46.907Z,16.19
2022-10-01T13:42:23.147Z,16.01
2022-10-01T13:45:05.828Z,15.85
2022-10-01T13:47:34.727Z,15.80
2022-10-01T13:50:04.085Z,15.71
2022-10-01T13:52:32.129Z,15.66
2022-10-01T13:55:00.180Z,15.65
2022-10-01T13:57:37.540Z,15.85
2022-10-01T14:00:16.364Z,16.06
2022-10-01T14:03:00.093Z,16.27
2022-10-01T14:05:35.051Z,16.22
2022-10-01T14:08:29.007Z,16.02
2022-10-01T14:11:19.063Z,15.97
2022-10-01T14:14:06.760Z,15.95
2022-10-01T14:16:45.954Z,16.04
2022-10-01T14:19:24.936Z,16.20
2022-10-01T14:22:17.967Z,16.24
2022-10-01T14:25:03.007Z,16.27
2022-10-01T14:27:35.861Z,16.23
2022-10-01T14:30:11.896Z,16.31
2022-10-01T14:33:07.674Z,16.43
2022-10-01T14:36:08.508Z,16.39
2022-10-01T14:38:35.309Z,16.39
2022-10-01T14:41:02.058Z,16.37
2022-10-01T14:43:30.929Z,16.24
2022-10-01T14:45:57.639Z,16.27
2022-10-01T14:48:26.437Z,16.31
2022-10-01T14:51:02.055Z,16.36
2022-10-01T14:53:31.853Z,16.32
2022-10-01T14:56:09.232Z,16.31
2022-10-01T14:59:08.838Z,16.34
2022-10-01T15:01:36.995Z,16.25
2022-10-01T15:04:14.138Z,16.03
2022-10-01T15:06:42.725Z,15.97
2022-10-01T15:09:15.111Z,16.01
2022-10-01T15:11:44.600Z,15.93
2022-10-01T15:14:17.197Z,15.88
2022-10-01T15:16:43.981Z,15.87
2022-10-01T15:19:15.674Z,15.79
2022-10-01T15:21:54.284Z,15.76
2022-10-01T15:24:33.748Z,15.88
2022-10-01T15:27:00.902Z,15.97
2022-10-01T15:29:27.983Z,16.01
2022-10-01T15:31:57.014Z,15.97
2022-10-01T15:34:25.743Z,15.96
2022-10-01T15:36:53.672Z,15.97
2022-10-01T15:39:33.435Z,16.04
2022-10-01T15:42:07.587Z,16.07
2022-10-01T15:44:38.681Z,16.11
2022-10-01T15:47:21.051Z,16.17
2022-10-01T15:50:11.123Z,16.13
2022-10-01T15:52:50.636Z,16.09
2022-10-01T15:55:37.415Z,16.14
2022-10-01T15:58:06.703Z,16.12
2022-10-01T16:00:59.660Z,16.15
2022-10-01T16:03:42.371Z,16.18
2022-10-01T16:06:25.442Z,16.09
2022-10-01T16:09:00.245Z,16.09
2022-10-01T16:11:33.406Z,16.09
2022-10-01T16:14:21.942Z,16.00
2022-10-01T16:16:50.672Z,16.02
2022-10-01T16:19:30.752Z,16.09
2022-10-01T16:22:21.609Z,16.12
2022-10-01T16:25:12.552Z,16.26
2022-10-01T16:27:50.150Z,16.41
2022-10-01T16:30:27.051Z,16.43
2022-10-01T16:32:54.628Z,16.35
2022-10-01T16:35:26.576Z,16.22
2022-10-01T16:37:59.618Z,16.07
2022-10-01T16:40:31.546Z,16.00
2022-10-01T16:43:02.453Z,15.97
2022-10-01T16:45:36.821Z,15.88
2022-10-01T16:48:13.662Z,15.88
2022-10-01T16:50:41.519Z,15.87
2022-10-01T16:53:15.734Z,15.80
2022-10-01T16:55:43.276Z,15.82
2022-10-01T16:58:10.727Z,15.90
2022-10-01T17:00:38.011Z,15.94
2022-10-01T17:03:06.693Z,15.85
2022-10-01T17:05:38.664Z,15.73
2022-10-01T17:08:11.034Z,15.66
2022-10-01T17:10:40.355Z,15.60
2022-10-01T17:13:07.071Z,15.60
2022-10-01T17:15:33.690Z,15.55
2022-10-01T17:18:00.432Z,15.49
2022-10-01T17:20:28.865Z,15.41
2022-10-01T17:22:56.593Z,15.43
2022-10-01T17:25:25.548Z,15.48
2022-10-01T17:27:52.399Z,15.48
2022-10-01T17:30:19.109Z,15.44
2022-10-01T17:32:46.629Z,15.45
2022-10-01T17:35:14.283Z,15.41
2022-10-01T17:37:41.619Z,15.41
2022-10-01T17:40:09.747Z,15.35
2022-10-01T17:42:36.555Z,15.35
2022-10-01T17:45:05.503Z,15.36
2022-10-01T17:47:32.294Z,15.37
2022-10-01T17:49:59.057Z,15.35
2022-10-01T17:52:25.950Z,15.30
2022-10-01T17:54:52.711Z,15.27
2022-10-01T17:57:19.506Z,15.28
2022-10-01T17:59:46.118Z,15.25
2022-10-01T18:02:36.758Z,15.23
2022-10-01T18:05:01.198Z,15.24
2022-10-01T18:07:27.899Z,15.26
2022-10-01T18:09:54.635Z,15.19
2022-10-01T18:12:21.359Z,15.22
2022-10-01T18:14:49.837Z,15.25
2022-10-01T18:17:16.534Z,15.29
2022-10-01T18:19:54.026Z,15.37
2022-10-01T18:22:21.919Z,15.50
2022-10-01T18:24:48.555Z,15.58
2022-10-01T18:27:18.851Z,15.65
2022-10-01T18:29:46.134Z,15.74
2022-10-01T18:32:21.851Z,15.78
2022-10-01T18:34:56.075Z,15.84
2022-10-01T18:37:40.548Z,15.89
2022-10-01T18:40:11.386Z,15.93
2022-10-01T18:42:53.447Z,15.96
2022-10-01T18:45:26.039Z,16.01
2022-10-01T18:47:55.817Z,16.03
2022-10-01T18:50:34.691Z,16.08
2022-10-01T18:53:25.007Z,16.13
2022-10-01T18:56:16.124Z,16.15
2022-10-01T18:59:05.856Z,16.15
2022-10-01T19:01:39.964Z,16.18
2022-10-01T19:04:20.790Z,16.20
2022-10-01T19:07:06.374Z,16.22
2022-10-01T19:09:44.844Z,16.22
2022-10-01T19:12:23.659Z,16.24
2022-10-01T19:15:05.635Z,16.26
2022-10-01T19:17:41.312Z,16.28
2022-10-01T19:20:22.874Z,16.28
2022-10-01T19:23:17.591Z,16.31
2022-10-01T19:25:57.332Z,16.30
2022-10-01T19:28:31.706Z,16.32
2022-10-01T19:31:20.638Z,16.34
2022-10-01T19:33:52.091Z,16.35
2022-10-01T19:36:35.752Z,16.38
2022-10-01T19:39:12.211Z,16.37
2022-10-01T19:41:51.176Z,16.40
2022-10-01T19:44:25.364Z,16.40
2022-10-01T19:46:56.505Z,16.42
2022-10-01T19:49:31.813Z,16.42
2022-10-01T19:52:05.495Z,16.44
2022-10-01T19:54:34.730Z,16.45
2022-10-01T19:57:25.793Z,16.48
2022-10-01T20:00:09.439Z,16.49
2022-10-01T20:02:51.421Z,16.50
2022-10-01T20:05:29.675Z,16.50
2022-10-01T20:08:01.100Z,16.53
2022-10-01T20:10:37.213Z,16.53
2022-10-01T20:13:42.487Z,16.55
2022-10-01T20:16:13.305Z,16.56
2022-10-01T20:19:05.153Z,16.54
2022-10-01T20:21:34.587Z,16.56
2022-10-01T20:24:21.537Z,16.58
2022-10-01T20:26:53.341Z,16.59
2022-10-01T20:29:32.361Z,16.59
2022-10-01T20:32:03.278Z,16.60
2022-10-01T20:34:48.874Z,16.60
2022-10-01T20:37:43.483Z,16.63
2022-10-01T20:40:18.808Z,16.62
2022-10-01T20:42:48.087Z,16.63
2022-10-01T20:45:22.186Z,16.62
2022-10-01T20:47:54.620Z,16.63
2022-10-01T20:50:26.095Z,16.63
2022-10-01T20:53:05.132Z,16.64
2022-10-01T20:55:49.108Z,16.64
2022-10-01T20:58:21.059Z,16.65
2022-10-01T21:00:49.754Z,16.64
2022-10-01T21:03:31.866Z,16.65
2022-10-01T21:06:04.043Z,16.66
2022-10-01T21:08:53.612Z,16.68
2022-10-01T21:11:28.379Z,16.67
2022-10-01T21:14:04.603Z,16.65
2022-10-01T21:16:38.118Z,16.65
2022-10-01T21:19:17.424Z,16.65
2022-10-01T21:21:56.793Z,16.63
2022-10-01T21:24:53.515Z,16.64
2022-10-01T21:27:25.978Z,16.64
2022-10-01T21:29:52.612Z,16.65
2022-10-01T21:32:21.704Z,16.65
2022-10-01T21:35:15.190Z,16.66
2022-10-01T21:38:08.887Z,16.64
2022-10-01T21:40:56.347Z,16.65
2022-10-01T21:43:56.687Z,16.64
2022-10-01T21:46:33.340Z,16.63
2022-10-01T21:49:08.691Z,16.61
2022-10-01T21:51:46.479Z,16.61
2022-10-01T21:54:19.355Z,16.61
2022-10-01T21:56:55.575Z,16.63
2022-10-01T21:59:27.515Z,16.64
2022-10-01T22:02:35.026Z,16.65
2022-10-01T22:05:25.022Z,16.65
2022-10-01T22:08:08.432Z,16.63
2022-10-01T22:10:40.589Z,16.63
2022-10-01T22:13:11.582Z,16.69
2022-10-01T22:15:42.020Z,16.62
2022-10-01T22:18:17.170Z,16.59
2022-10-01T22:20:45.216Z,16.59
2022-10-01T22:23:17.112Z,16.59
2022-10-01T22:25:51.809Z,16.58
2022-10-01T22:28:22.814Z,16.59
2022-10-01T22:30:51.539Z,16.60
2022-10-01T22:33:29.783Z,16.59
2022-10-01T22:36:02.328Z,16.59
2022-10-01T22:38:45.881Z,16.60
2022-10-01T22:41:23.987Z,16.59
2022-10-01T22:43:50.941Z,16.58
2022-10-01T22:46:55.903Z,16.59
2022-10-01T22:49:39.019Z,16.58
2022-10-01T22:52:32.995Z,16.57
2022-10-01T22:55:48.301Z,16.58
2022-10-01T22:58:33.639Z,16.57
2022-10-01T23:01:44.142Z,16.56
2022-10-01T23:04:26.496Z,16.57
2022-10-01T23:07:04.874Z,16.56
2022-10-01T23:09:55.006Z,16.57
2022-10-01T23:12:36.959Z,16.56
2022-10-01T23:15:14.099Z,16.55
2022-10-01T23:17:50.635Z,16.56
2022-10-01T23:20:48.480Z,16.57
2022-10-01T23:23:25.288Z,16.57
2022-10-01T23:26:10.266Z,16.57
2022-10-01T23:28:47.860Z,16.58
2022-10-01T23:31:44.264Z,16.59
2022-10-01T23:34:53.247Z,16.60
2022-10-01T23:38:06.566Z,16.59
2022-10-01T23:40:36.879Z,16.57
2022-10-01T23:43:06.658Z,16.57
2022-10-01T23:45:48.490Z,16.58
2022-10-01T23:48:24.227Z,16.58
2022-10-01T23:50:59.750Z,16.58
2022-10-01T23:53:42.611Z,16.58
2022-10-01T23:56:33.058Z,16.59
2022-10-01T23:59:20.090Z,16.66
